BBC Skysails — V2CS4 — position and weather

sailwx.info

Track history (hours):
 
Tides and Currents Weather Stations Pressure Air Temp Water Temp Dewpoint Dewpoint Depression Visibility Wind Speed Wind Dir Waves Ship Positions

BBC Skysails

Last reported at 2018-Jun-18 09:48 UTC. Time now 2018-Jun-18 11:37 UTC.
Position N 39°48' W 009°25'.

Length 132 m; draft 5.2 m.

Type: Cargo ship. MMSI: 305093000.

Date/timePositionNaut miles runAvg speedWind from/ knotsBaromVisibWave heightAir tempDewpointWater temp
2018-Jun-18 09:48N 39°48' W 009°25'311.6
2018-Jun-18 09:30N 39°45' W 009°28'611.2
2018-Jun-18 09:00N 39°41' W 009°32'611.0
2018-Jun-18 08:30N 39°36' W 009°37'610.8
2018-Jun-18 08:00N 39°32' W 009°41'710.8
2018-Jun-18 07:22N 39°26' W 009°46'411.1
2018-Jun-18 06:59N 39°22' W 009°47'510.8
2018-Jun-18 06:30N 39°17' W 009°49'510.5
2018-Jun-18 06:00N 39°12' W 009°50'5 9.7
2018-Jun-18 05:31N 39°07' W 009°50'5 9.8
2018-Jun-18 05:00N 39°02' W 009°50'510.1
2018-Jun-18 04:30N 38°57' W 009°51'510.1
2018-Jun-18 04:00N 38°52' W 009°51'510.0
2018-Jun-18 03:30N 38°47' W 009°51'5 9.9
2018-Jun-18 03:00N 38°42' W 009°50'5 9.4
2018-Jun-18 02:30N 38°37' W 009°50'5 9.1
2018-Jun-18 02:01N 38°33' W 009°47'5 9.3
2018-Jun-18 01:31N 38°29' W 009°44'510.5
2018-Jun-18 01:01N 38°25' W 009°40'510.6
2018-Jun-18 00:30N 38°21' W 009°36'510.9
2018-Jun-18 00:00N 38°16' W 009°32'611.2
2018-Jun-17 23:30N 38°11' W 009°29'611.4
2018-Jun-17 23:00N 38°06' W 009°25'611.7
2018-Jun-17 22:30N 38°01' W 009°22'611.7
2018-Jun-17 22:00N 37°56' W 009°18'611.5
2018-Jun-17 21:30N 37°50' W 009°17'612.0
2018-Jun-17 21:00N 37°44' W 009°19'611.6
2018-Jun-17 20:29N 37°39' W 009°21'611.9
2018-Jun-17 20:00N 37°33' W 009°22'611.9
2018-Jun-17 19:30N 37°27' W 009°23'612.1
2018-Jun-17 19:00N 37°21' W 009°24'611.7
2018-Jun-17 18:30N 37°15' W 009°25'510.4
2018-Jun-17 17:59N 37°10' W 009°24'611.4
2018-Jun-17 17:25N 37°04' W 009°23'511.2
2018-Jun-17 16:56N 36°58' W 009°21'611.3
2018-Jun-17 16:23N 36°52' W 009°19'511.9
2018-Jun-17 15:57N 36°49' W 009°14'511.9
2018-Jun-17 15:30N 36°45' W 009°09'511.1
2018-Jun-17 15:00N 36°43' W 009°03'611.3
2018-Jun-17 14:29N 36°40' W 008°56'612.1
2018-Jun-17 14:00N 36°38' W 008°50'712.7
2018-Jun-17 13:27N 36°34' W 008°42'612.9
2018-Jun-17 12:59N 36°32' W 008°35'713.4
2018-Jun-17 12:28N 36°30' W 008°27'813.6
2018-Jun-17 11:52N 36°28' W 008°17'12313.8
2018-Jun-17 02:55N 35°58' W 005°49'715.3
2018-Jun-17 02:27N 35°58' W 005°41'613.9
2018-Jun-17 02:00N 35°58' W 005°33'612.8
2018-Jun-17 01:30N 36°00' W 005°25'611.5
2018-Jun-17 01:00N 36°02' W 005°19'510.6
2018-Jun-17 00:30N 36°03' W 005°12'20312.8
2018-Jun-16 08:42N 36°37' W 001°04'314.0
2018-Jun-16 08:30N 36°37' W 001°00'814.1
2018-Jun-16 07:58N 36°38' W 000°51'613.9
2018-Jun-16 07:30N 36°39' W 000°43'714.0
2018-Jun-16 06:59N 36°40' W 000°34'714.0
2018-Jun-16 06:30N 36°42' W 000°26'713.9
2018-Jun-16 06:00N 36°43' W 000°17'612.9
2018-Jun-16 05:30N 36°44' W 000°10'612.9
2018-Jun-16 05:00N 36°45' W 000°02'612.7
2018-Jun-16 04:30N 36°46' E 000°06'612.6
2018-Jun-16 04:00N 36°48' E 000°14'612.6
2018-Jun-16 03:30N 36°49' E 000°22'612.6
2018-Jun-16 03:00N 36°50' E 000°29'612.5
2018-Jun-16 02:30N 36°51' E 000°37'612.5
2018-Jun-16 02:00N 36°52' E 000°45'612.6
2018-Jun-16 01:30N 36°53' E 000°52'612.6
2018-Jun-16 01:00N 36°54' E 001°00'612.6
2018-Jun-16 00:30N 36°56' E 001°08'612.5
2018-Jun-16 00:00N 36°57' E 001°16'612.5
2018-Jun-15 23:30N 36°58' E 001°23'612.5
2018-Jun-15 23:00N 36°59' E 001°31'612.5
2018-Jun-15 22:30N 36°60' E 001°39'912.5
2018-Jun-15 21:46N 37°02' E 001°50'312.6
2018-Jun-15 21:30N 37°02' E 001°54'612.4
2018-Jun-15 21:00N 37°03' E 002°02'612.4
2018-Jun-15 20:30N 37°05' E 002°10'612.2
2018-Jun-15 20:00N 37°06' E 002°17'612.0
2018-Jun-15 19:30N 37°07' E 002°24'611.9
2018-Jun-15 19:00N 37°08' E 002°32'612.2
2018-Jun-15 18:30N 37°09' E 002°39'712.9
2018-Jun-15 18:00N 37°10' E 002°47'713.2
2018-Jun-15 17:29N 37°11' E 002°56'713.6
2018-Jun-15 16:59N 37°12' E 003°04'713.8
2018-Jun-15 16:27N 37°13' E 003°13'714.1
2018-Jun-15 15:56N 37°14' E 003°23'  
2018-Jun-12 07:24N 36°40' E 014°45'511.0
2018-Jun-12 06:59N 36°40' E 014°40'612.9
2018-Jun-12 06:30N 36°40' E 014°32'612.7
2018-Jun-12 06:00N 36°42' E 014°24'612.4
2018-Jun-12 05:30N 36°44' E 014°17'612.6
2018-Jun-12 05:00N 36°46' E 014°10'612.6
2018-Jun-12 04:30N 36°48' E 014°02'612.6
2018-Jun-12 04:00N 36°49' E 013°55'712.9
2018-Jun-12 03:30N 36°51' E 013°47'712.9
2018-Jun-12 03:00N 36°54' E 013°39'612.8
2018-Jun-12 02:30N 36°57' E 013°32'612.5
2018-Jun-12 02:00N 36°60' E 013°26'5812.8
2018-Jun-11 21:28N 37°29' E 012°22'613.7
2018-Jun-11 21:00N 37°33' E 012°15'8910.1
2018-Jun-11 12:14N 38°52' E 011°25'4512.1
2018-Jun-11 08:30N 39°35' E 011°05'912.2
2018-Jun-11 07:48N 39°43' E 011°01'312.0
2018-Jun-11 07:31N 39°46' E 010°60'2012.1
2018-Jun-11 05:49N 40°05' E 010°51'412.4
2018-Jun-11 05:30N 40°09' E 010°50'712.5
2018-Jun-11 04:58N 40°15' E 010°47'612.5
2018-Jun-11 04:27N 40°21' E 010°44'911.3
2018-Jun-11 03:41N 40°30' E 010°40'1910.7
2018-Jun-11 01:55N 40°47' E 010°32'410.5
2018-Jun-11 01:30N 40°51' E 010°30'510.5
2018-Jun-11 01:01N 40°56' E 010°28'510.5
2018-Jun-11 00:30N 41°01' E 010°25'510.7
2018-Jun-11 00:00N 41°06' E 010°23'510.9
2018-Jun-10 23:30N 41°11' E 010°21'510.9
2018-Jun-10 23:01N 41°17' E 010°18'510.9
2018-Jun-10 22:30N 41°22' E 010°16'611.2
2018-Jun-10 22:01N 41°27' E 010°13'611.3
2018-Jun-10 21:30N 41°32' E 010°11'611.0
2018-Jun-10 21:00N 41°37' E 010°08'611.1
2018-Jun-10 20:30N 41°43' E 010°06'611.1
2018-Jun-10 20:00N 41°48' E 010°03'611.3
2018-Jun-10 19:31N 41°53' E 010°01'611.3
2018-Jun-10 19:00N 41°59' E 009°58'611.4
2018-Jun-10 18:31N 42°04' E 009°56'611.4
2018-Jun-10 18:00N 42°09' E 009°53'911.3
2018-Jun-10 17:14N 42°18' E 009°50'311.1
2018-Jun-10 16:58N 42°21' E 009°49'511.1
2018-Jun-10 16:30N 42°26' E 009°47'611.1
2018-Jun-10 16:00N 42°31' E 009°46'611.1
2018-Jun-10 15:30N 42°36' E 009°44'611.2
2018-Jun-10 15:00N 42°42' E 009°42'1111.1
2018-Jun-10 14:01N 42°53' E 009°39'611.2
2018-Jun-10 13:30N 42°58' E 009°36'510.8
2018-Jun-10 13:00N 43°03' E 009°35'611.2
2018-Jun-10 12:31N 43°09' E 009°35'611.1
2018-Jun-10 12:01N 43°14' E 009°37'611.2
2018-Jun-10 11:30N 43°20' E 009°39'611.4
2018-Jun-10 11:00N 43°25' E 009°41'611.4
2018-Jun-10 10:30N 43°31' E 009°43'611.5
2018-Jun-10 10:00N 43°36' E 009°45'713.0
2018-Jun-10 09:30N 43°43' E 009°47'511.0
2018-Jun-10 09:01N 43°48' E 009°49'2 3.7
2018-Jun-10 08:30N 43°46' E 009°50'4 8.4
2018-Jun-10 08:00N 43°49' E 009°54'612.7
2018-Jun-10 07:30N 43°55' E 009°59'612.4
2018-Jun-10 07:00N 43°60' E 010°03'2 3.6
2018-Jun-10 06:26N 44°02' E 010°02'0 0.0
2018-Jun-10 05:59N 44°02' E 010°02'0 0.0
2018-Jun-10 05:29N 44°02' E 010°02'0 0.0
2018-Jun-10 04:59N 44°02' E 010°02'0 0.0
2018-Jun-10 04:29N 44°02' E 010°02'0 0.0
2018-Jun-10 03:56N 44°02' E 010°02'0 0.0
2018-Jun-10 03:29N 44°02' E 010°02'0 0.0
2018-Jun-10 02:59N 44°02' E 010°02'0 0.0
2018-Jun-10 02:26N 44°02' E 010°02'0 0.0
2018-Jun-10 01:59N 44°02' E 010°02'0 0.0
2018-Jun-10 01:29N 44°02' E 010°02'0 0.0
2018-Jun-10 00:53N 44°02' E 010°02'0 0.0
2018-Jun-10 00:29N 44°02' E 010°02'0 0.0
2018-Jun-09 23:59N 44°02' E 010°02'0 0.0
2018-Jun-09 23:23N 44°02' E 010°02'0 0.0
2018-Jun-09 22:59N 44°02' E 010°02'0 0.0
2018-Jun-09 22:29N 44°02' E 010°02'0 0.0
2018-Jun-09 21:59N 44°02' E 010°02'0 0.0
2018-Jun-09 21:29N 44°02' E 010°02'0 0.0
2018-Jun-09 20:53N 44°02' E 010°02'0 0.0
2018-Jun-09 20:29N 44°02' E 010°02'0 0.0
2018-Jun-09 19:56N 44°02' E 010°02'0 0.0
2018-Jun-09 19:20N 44°02' E 010°02'0 0.0
2018-Jun-09 18:56N 44°02' E 010°02'0 0.0
2018-Jun-09 18:29N 44°02' E 010°02'0 0.0
2018-Jun-09 17:56N 44°02' E 010°02'0 0.0
2018-Jun-09 17:26N 44°02' E 010°02'0 0.0
2018-Jun-09 16:47N 44°02' E 010°02'0 0.0
2018-Jun-09 16:26N 44°02' E 010°02'0 0.0
2018-Jun-09 15:59N 44°02' E 010°02'0 0.0
2018-Jun-09 15:26N 44°02' E 010°02'0 0.0
2018-Jun-09 14:29N 44°02' E 010°02'0 0.0
2018-Jun-09 13:53N 44°02' E 010°02'0 0.0
2018-Jun-09 13:29N 44°02' E 010°02'0 0.0
2018-Jun-09 12:59N 44°02' E 010°02'0 0.0
2018-Jun-09 12:26N 44°02' E 010°02'0 0.0
2018-Jun-09 11:59N 44°02' E 010°02'0 0.0
2018-Jun-09 11:26N 44°02' E 010°02'0 0.0
2018-Jun-09 10:56N 44°02' E 010°02'0 0.0
2018-Jun-09 10:29N 44°02' E 010°02'0 0.0
2018-Jun-09 09:59N 44°02' E 010°02'0 0.0
2018-Jun-09 09:29N 44°02' E 010°02'0 0.0
2018-Jun-09 08:56N 44°02' E 010°02'0 0.0
2018-Jun-09 08:29N 44°02' E 010°02'0 0.0
2018-Jun-09 07:59N 44°02' E 010°02'0 0.0
2018-Jun-09 07:29N 44°02' E 010°02'0 0.0
2018-Jun-09 06:59N 44°02' E 010°02'0 0.0
2018-Jun-09 06:20N 44°02' E 010°02'0 0.0
2018-Jun-09 05:59N 44°02' E 010°02'0 0.0
2018-Jun-09 05:29N 44°02' E 010°02'0 0.0
2018-Jun-09 04:56N 44°02' E 010°02'0 0.0
2018-Jun-09 04:29N 44°02' E 010°02'0 0.0
2018-Jun-09 03:59N 44°02' E 010°02'0 0.0
2018-Jun-09 03:17N 44°02' E 010°02'0 0.0
2018-Jun-09 02:59N 44°02' E 010°02'0 0.0
2018-Jun-09 02:29N 44°02' E 010°02'0 0.0
2018-Jun-09 01:59N 44°02' E 010°02'0 0.0
2018-Jun-09 01:29N 44°02' E 010°02'0 0.0
2018-Jun-09 00:59N 44°02' E 010°02'0 0.0
2018-Jun-09 00:29N 44°02' E 010°02'0 0.0
2018-Jun-08 23:59N 44°02' E 010°02'0 0.0
2018-Jun-08 23:29N 44°02' E 010°02'0 0.0
2018-Jun-08 22:59N 44°02' E 010°02'0 0.0
2018-Jun-08 22:26N 44°02' E 010°02'0 0.0
2018-Jun-08 21:59N 44°02' E 010°02'0 0.0
2018-Jun-08 21:29N 44°02' E 010°02'0 0.0
2018-Jun-08 20:59N 44°02' E 010°02'0 0.0
2018-Jun-08 20:30N 44°02' E 010°02'0 0.0
2018-Jun-08 20:00N 44°02' E 010°02'0 0.0
2018-Jun-08 19:30N 44°02' E 010°02'0 0.0
2018-Jun-08 19:00N 44°02' E 010°02'0 0.0
2018-Jun-08 18:31N 44°02' E 010°02'0 0.0
2018-Jun-08 18:01N 44°02' E 010°02'0 0.0
2018-Jun-08 17:31N 44°02' E 010°02'0 0.0
2018-Jun-08 17:00N 44°02' E 010°02'0 0.0
2018-Jun-08 16:30N 44°02' E 010°02'0 0.0
2018-Jun-08 16:00N 44°02' E 010°02'0 0.0
2018-Jun-08 15:30N 44°02' E 010°02'0 0.0
2018-Jun-08 15:00N 44°02' E 010°02'0 0.0
2018-Jun-08 14:29N 44°02' E 010°02'0 0.0
2018-Jun-08 14:00N 44°02' E 010°02'0 0.0
2018-Jun-08 13:27N 44°02' E 010°02'0 0.0
2018-Jun-08 13:00N 44°02' E 010°02'0 0.0
2018-Jun-08 12:31N 44°02' E 010°02'1 2.3
2018-Jun-08 12:01N 44°01' E 010°03'3 6.4
2018-Jun-08 11:30N 43°59' E 009°60'510.5
2018-Jun-08 11:00N 43°55' E 009°55'510.8
2018-Jun-08 10:30N 43°51' E 009°50'511.0
2018-Jun-08 10:01N 43°47' E 009°45'  
Track history (hours):
 
Tides and Currents Weather Stations Pressure Air Temp Water Temp Dewpoint Dewpoint Depression Visibility Wind Speed Wind Dir Waves Ship Positions

BBC Skysails

Last reported at 2018-Jun-18 09:48 UTC. Time now 2018-Jun-18 11:37 UTC.
Position N 39°48' W 009°25'.

Length 132 m; draft 5.2 m.

Type: Cargo ship. MMSI: 305093000.

Date/timePositionNaut miles runAvg speedWind from/ knotsBaromVisibWave heightAir tempDewpointWater temp
2018-Jun-18 09:48N 39°48' W 009°25'311.6
2018-Jun-18 09:30N 39°45' W 009°28'611.2
2018-Jun-18 09:00N 39°41' W 009°32'611.0
2018-Jun-18 08:30N 39°36' W 009°37'610.8
2018-Jun-18 08:00N 39°32' W 009°41'710.8
2018-Jun-18 07:22N 39°26' W 009°46'411.1
2018-Jun-18 06:59N 39°22' W 009°47'510.8
2018-Jun-18 06:30N 39°17' W 009°49'510.5
2018-Jun-18 06:00N 39°12' W 009°50'5 9.7
2018-Jun-18 05:31N 39°07' W 009°50'5 9.8
2018-Jun-18 05:00N 39°02' W 009°50'510.1
2018-Jun-18 04:30N 38°57' W 009°51'510.1
2018-Jun-18 04:00N 38°52' W 009°51'510.0
2018-Jun-18 03:30N 38°47' W 009°51'5 9.9
2018-Jun-18 03:00N 38°42' W 009°50'5 9.4
2018-Jun-18 02:30N 38°37' W 009°50'5 9.1
2018-Jun-18 02:01N 38°33' W 009°47'5 9.3
2018-Jun-18 01:31N 38°29' W 009°44'510.5
2018-Jun-18 01:01N 38°25' W 009°40'510.6
2018-Jun-18 00:30N 38°21' W 009°36'510.9
2018-Jun-18 00:00N 38°16' W 009°32'611.2
2018-Jun-17 23:30N 38°11' W 009°29'611.4
2018-Jun-17 23:00N 38°06' W 009°25'611.7
2018-Jun-17 22:30N 38°01' W 009°22'611.7
2018-Jun-17 22:00N 37°56' W 009°18'611.5
2018-Jun-17 21:30N 37°50' W 009°17'612.0
2018-Jun-17 21:00N 37°44' W 009°19'611.6
2018-Jun-17 20:29N 37°39' W 009°21'611.9
2018-Jun-17 20:00N 37°33' W 009°22'611.9
2018-Jun-17 19:30N 37°27' W 009°23'612.1
2018-Jun-17 19:00N 37°21' W 009°24'611.7
2018-Jun-17 18:30N 37°15' W 009°25'510.4
2018-Jun-17 17:59N 37°10' W 009°24'611.4
2018-Jun-17 17:25N 37°04' W 009°23'511.2
2018-Jun-17 16:56N 36°58' W 009°21'611.3
2018-Jun-17 16:23N 36°52' W 009°19'511.9
2018-Jun-17 15:57N 36°49' W 009°14'511.9
2018-Jun-17 15:30N 36°45' W 009°09'511.1
2018-Jun-17 15:00N 36°43' W 009°03'611.3
2018-Jun-17 14:29N 36°40' W 008°56'612.1
2018-Jun-17 14:00N 36°38' W 008°50'712.7
2018-Jun-17 13:27N 36°34' W 008°42'612.9
2018-Jun-17 12:59N 36°32' W 008°35'713.4
2018-Jun-17 12:28N 36°30' W 008°27'813.6
2018-Jun-17 11:52N 36°28' W 008°17'12313.8
2018-Jun-17 02:55N 35°58' W 005°49'715.3
2018-Jun-17 02:27N 35°58' W 005°41'613.9
2018-Jun-17 02:00N 35°58' W 005°33'612.8
2018-Jun-17 01:30N 36°00' W 005°25'611.5
2018-Jun-17 01:00N 36°02' W 005°19'510.6
2018-Jun-17 00:30N 36°03' W 005°12'20312.8
2018-Jun-16 08:42N 36°37' W 001°04'314.0
2018-Jun-16 08:30N 36°37' W 001°00'814.1
2018-Jun-16 07:58N 36°38' W 000°51'613.9
2018-Jun-16 07:30N 36°39' W 000°43'714.0
2018-Jun-16 06:59N 36°40' W 000°34'714.0
2018-Jun-16 06:30N 36°42' W 000°26'713.9
2018-Jun-16 06:00N 36°43' W 000°17'612.9
2018-Jun-16 05:30N 36°44' W 000°10'612.9
2018-Jun-16 05:00N 36°45' W 000°02'612.7
2018-Jun-16 04:30N 36°46' E 000°06'612.6
2018-Jun-16 04:00N 36°48' E 000°14'612.6
2018-Jun-16 03:30N 36°49' E 000°22'612.6
2018-Jun-16 03:00N 36°50' E 000°29'612.5
2018-Jun-16 02:30N 36°51' E 000°37'612.5
2018-Jun-16 02:00N 36°52' E 000°45'612.6
2018-Jun-16 01:30N 36°53' E 000°52'612.6
2018-Jun-16 01:00N 36°54' E 001°00'612.6
2018-Jun-16 00:30N 36°56' E 001°08'612.5
2018-Jun-16 00:00N 36°57' E 001°16'612.5
2018-Jun-15 23:30N 36°58' E 001°23'612.5
2018-Jun-15 23:00N 36°59' E 001°31'612.5
2018-Jun-15 22:30N 36°60' E 001°39'912.5
2018-Jun-15 21:46N 37°02' E 001°50'312.6
2018-Jun-15 21:30N 37°02' E 001°54'612.4
2018-Jun-15 21:00N 37°03' E 002°02'612.4
2018-Jun-15 20:30N 37°05' E 002°10'612.2
2018-Jun-15 20:00N 37°06' E 002°17'612.0
2018-Jun-15 19:30N 37°07' E 002°24'611.9
2018-Jun-15 19:00N 37°08' E 002°32'612.2
2018-Jun-15 18:30N 37°09' E 002°39'712.9
2018-Jun-15 18:00N 37°10' E 002°47'713.2
2018-Jun-15 17:29N 37°11' E 002°56'713.6
2018-Jun-15 16:59N 37°12' E 003°04'713.8
2018-Jun-15 16:27N 37°13' E 003°13'714.1
2018-Jun-15 15:56N 37°14' E 003°23'  
2018-Jun-12 07:24N 36°40' E 014°45'511.0
2018-Jun-12 06:59N 36°40' E 014°40'612.9
2018-Jun-12 06:30N 36°40' E 014°32'612.7
2018-Jun-12 06:00N 36°42' E 014°24'612.4
2018-Jun-12 05:30N 36°44' E 014°17'612.6
2018-Jun-12 05:00N 36°46' E 014°10'612.6
2018-Jun-12 04:30N 36°48' E 014°02'612.6
2018-Jun-12 04:00N 36°49' E 013°55'712.9
2018-Jun-12 03:30N 36°51' E 013°47'712.9
2018-Jun-12 03:00N 36°54' E 013°39'612.8
2018-Jun-12 02:30N 36°57' E 013°32'612.5
2018-Jun-12 02:00N 36°60' E 013°26'5812.8
2018-Jun-11 21:28N 37°29' E 012°22'613.7
2018-Jun-11 21:00N 37°33' E 012°15'8910.1
2018-Jun-11 12:14N 38°52' E 011°25'4512.1
2018-Jun-11 08:30N 39°35' E 011°05'912.2
2018-Jun-11 07:48N 39°43' E 011°01'312.0
2018-Jun-11 07:31N 39°46' E 010°60'2012.1
2018-Jun-11 05:49N 40°05' E 010°51'412.4
2018-Jun-11 05:30N 40°09' E 010°50'712.5
2018-Jun-11 04:58N 40°15' E 010°47'612.5
2018-Jun-11 04:27N 40°21' E 010°44'911.3
2018-Jun-11 03:41N 40°30' E 010°40'1910.7
2018-Jun-11 01:55N 40°47' E 010°32'410.5
2018-Jun-11 01:30N 40°51' E 010°30'510.5
2018-Jun-11 01:01N 40°56' E 010°28'510.5
2018-Jun-11 00:30N 41°01' E 010°25'510.7
2018-Jun-11 00:00N 41°06' E 010°23'510.9
2018-Jun-10 23:30N 41°11' E 010°21'510.9
2018-Jun-10 23:01N 41°17' E 010°18'510.9
2018-Jun-10 22:30N 41°22' E 010°16'611.2
2018-Jun-10 22:01N 41°27' E 010°13'611.3
2018-Jun-10 21:30N 41°32' E 010°11'611.0
2018-Jun-10 21:00N 41°37' E 010°08'611.1
2018-Jun-10 20:30N 41°43' E 010°06'611.1
2018-Jun-10 20:00N 41°48' E 010°03'611.3
2018-Jun-10 19:31N 41°53' E 010°01'611.3
2018-Jun-10 19:00N 41°59' E 009°58'611.4
2018-Jun-10 18:31N 42°04' E 009°56'611.4
2018-Jun-10 18:00N 42°09' E 009°53'911.3
2018-Jun-10 17:14N 42°18' E 009°50'311.1
2018-Jun-10 16:58N 42°21' E 009°49'511.1
2018-Jun-10 16:30N 42°26' E 009°47'611.1
2018-Jun-10 16:00N 42°31' E 009°46'611.1
2018-Jun-10 15:30N 42°36' E 009°44'611.2
2018-Jun-10 15:00N 42°42' E 009°42'1111.1
2018-Jun-10 14:01N 42°53' E 009°39'611.2
2018-Jun-10 13:30N 42°58' E 009°36'510.8
2018-Jun-10 13:00N 43°03' E 009°35'611.2
2018-Jun-10 12:31N 43°09' E 009°35'611.1
2018-Jun-10 12:01N 43°14' E 009°37'611.2
2018-Jun-10 11:30N 43°20' E 009°39'611.4
2018-Jun-10 11:00N 43°25' E 009°41'611.4
2018-Jun-10 10:30N 43°31' E 009°43'611.5
2018-Jun-10 10:00N 43°36' E 009°45'713.0
2018-Jun-10 09:30N 43°43' E 009°47'511.0
2018-Jun-10 09:01N 43°48' E 009°49'2 3.7
2018-Jun-10 08:30N 43°46' E 009°50'4 8.4
2018-Jun-10 08:00N 43°49' E 009°54'612.7
2018-Jun-10 07:30N 43°55' E 009°59'612.4
2018-Jun-10 07:00N 43°60' E 010°03'2 3.6
2018-Jun-10 06:26N 44°02' E 010°02'0 0.0
2018-Jun-10 05:59N 44°02' E 010°02'0 0.0
2018-Jun-10 05:29N 44°02' E 010°02'0 0.0
2018-Jun-10 04:59N 44°02' E 010°02'0 0.0
2018-Jun-10 04:29N 44°02' E 010°02'0 0.0
2018-Jun-10 03:56N 44°02' E 010°02'0 0.0
2018-Jun-10 03:29N 44°02' E 010°02'0 0.0
2018-Jun-10 02:59N 44°02' E 010°02'0 0.0
2018-Jun-10 02:26N 44°02' E 010°02'0 0.0
2018-Jun-10 01:59N 44°02' E 010°02'0 0.0
2018-Jun-10 01:29N 44°02' E 010°02'0 0.0
2018-Jun-10 00:53N 44°02' E 010°02'0 0.0
2018-Jun-10 00:29N 44°02' E 010°02'0 0.0
2018-Jun-09 23:59N 44°02' E 010°02'0 0.0
2018-Jun-09 23:23N 44°02' E 010°02'0 0.0
2018-Jun-09 22:59N 44°02' E 010°02'0 0.0
2018-Jun-09 22:29N 44°02' E 010°02'0 0.0
2018-Jun-09 21:59N 44°02' E 010°02'0 0.0
2018-Jun-09 21:29N 44°02' E 010°02'0 0.0
2018-Jun-09 20:53N 44°02' E 010°02'0 0.0
2018-Jun-09 20:29N 44°02' E 010°02'0 0.0
2018-Jun-09 19:56N 44°02' E 010°02'0 0.0
2018-Jun-09 19:20N 44°02' E 010°02'0 0.0
2018-Jun-09 18:56N 44°02' E 010°02'0 0.0
2018-Jun-09 18:29N 44°02' E 010°02'0 0.0
2018-Jun-09 17:56N 44°02' E 010°02'0 0.0
2018-Jun-09 17:26N 44°02' E 010°02'0 0.0
2018-Jun-09 16:47N 44°02' E 010°02'0 0.0
2018-Jun-09 16:26N 44°02' E 010°02'0 0.0
2018-Jun-09 15:59N 44°02' E 010°02'0 0.0
2018-Jun-09 15:26N 44°02' E 010°02'0 0.0
2018-Jun-09 14:29N 44°02' E 010°02'0 0.0
2018-Jun-09 13:53N 44°02' E 010°02'0 0.0
2018-Jun-09 13:29N 44°02' E 010°02'0 0.0
2018-Jun-09 12:59N 44°02' E 010°02'0 0.0
2018-Jun-09 12:26N 44°02' E 010°02'0 0.0
2018-Jun-09 11:59N 44°02' E 010°02'0 0.0
2018-Jun-09 11:26N 44°02' E 010°02'0 0.0
2018-Jun-09 10:56N 44°02' E 010°02'0 0.0
2018-Jun-09 10:29N 44°02' E 010°02'0 0.0
2018-Jun-09 09:59N 44°02' E 010°02'0 0.0
2018-Jun-09 09:29N 44°02' E 010°02'0 0.0
2018-Jun-09 08:56N 44°02' E 010°02'0 0.0
2018-Jun-09 08:29N 44°02' E 010°02'0 0.0
2018-Jun-09 07:59N 44°02' E 010°02'0 0.0
2018-Jun-09 07:29N 44°02' E 010°02'0 0.0
2018-Jun-09 06:59N 44°02' E 010°02'0 0.0
2018-Jun-09 06:20N 44°02' E 010°02'0 0.0
2018-Jun-09 05:59N 44°02' E 010°02'0 0.0
2018-Jun-09 05:29N 44°02' E 010°02'0 0.0
2018-Jun-09 04:56N 44°02' E 010°02'0 0.0
2018-Jun-09 04:29N 44°02' E 010°02'0 0.0
2018-Jun-09 03:59N 44°02' E 010°02'0 0.0
2018-Jun-09 03:17N 44°02' E 010°02'0 0.0
2018-Jun-09 02:59N 44°02' E 010°02'0 0.0
2018-Jun-09 02:29N 44°02' E 010°02'0 0.0
2018-Jun-09 01:59N 44°02' E 010°02'0 0.0
2018-Jun-09 01:29N 44°02' E 010°02'0 0.0
2018-Jun-09 00:59N 44°02' E 010°02'0 0.0
2018-Jun-09 00:29N 44°02' E 010°02'0 0.0
2018-Jun-08 23:59N 44°02' E 010°02'0 0.0
2018-Jun-08 23:29N 44°02' E 010°02'0 0.0
2018-Jun-08 22:59N 44°02' E 010°02'0 0.0
2018-Jun-08 22:26N 44°02' E 010°02'0 0.0
2018-Jun-08 21:59N 44°02' E 010°02'0 0.0
2018-Jun-08 21:29N 44°02' E 010°02'0 0.0
2018-Jun-08 20:59N 44°02' E 010°02'0 0.0
2018-Jun-08 20:30N 44°02' E 010°02'0 0.0
2018-Jun-08 20:00N 44°02' E 010°02'0 0.0
2018-Jun-08 19:30N 44°02' E 010°02'0 0.0
2018-Jun-08 19:00N 44°02' E 010°02'0 0.0
2018-Jun-08 18:31N 44°02' E 010°02'0 0.0
2018-Jun-08 18:01N 44°02' E 010°02'0 0.0
2018-Jun-08 17:31N 44°02' E 010°02'0 0.0
2018-Jun-08 17:00N 44°02' E 010°02'0 0.0
2018-Jun-08 16:30N 44°02' E 010°02'0 0.0
2018-Jun-08 16:00N 44°02' E 010°02'0 0.0
2018-Jun-08 15:30N 44°02' E 010°02'0 0.0
2018-Jun-08 15:00N 44°02' E 010°02'0 0.0
2018-Jun-08 14:29N 44°02' E 010°02'0 0.0
2018-Jun-08 14:00N 44°02' E 010°02'0 0.0
2018-Jun-08 13:27N 44°02' E 010°02'0 0.0
2018-Jun-08 13:00N 44°02' E 010°02'0 0.0
2018-Jun-08 12:31N 44°02' E 010°02'1 2.3
2018-Jun-08 12:01N 44°01' E 010°03'3 6.4
2018-Jun-08 11:30N 43°59' E 009°60'510.5
2018-Jun-08 11:00N 43°55' E 009°55'510.8
2018-Jun-08 10:30N 43°51' E 009°50'511.0
2018-Jun-08 10:01N 43°47' E 009°45'  

Dump ship's entire track history